Time;durP1;ratioP1;P1;durP2;ratioP2;P2;SDS_P1;SDS_P2;PMS_P1;PMS_P2;Temp;Humidity;BMP_temperature;BMP_pressure;BME280_temperature;BME280_humidity;BME280_pressure;Samples;Min_cycle;Max_cycle;Signal;HPM_P1;HPM_P2
2021/04/28 00:00:28;;;;;;;8.67;7.80;;;;;;;;;;5006156;28;20185;-44
2021/04/28 00:02:54;;;;;;;8.87;7.97;;;;;;;;;;5005167;28;20182;-43
2021/04/28 00:05:19;;;;;;;8.50;7.70;;;;;;;;;;5006428;28;20607;-42
2021/04/28 00:07:46;;;;;;;8.43;7.57;;;;;;;;;;4990634;28;20181;-43
2021/04/28 00:10:12;;;;;;;8.83;7.93;;;;;;;;;;5000629;28;20224;-43
2021/04/28 00:12:38;;;;;;;7.57;6.90;;;;;;;;;;5002736;28;20650;-43
2021/04/28 00:15:05;;;;;;;9.50;7.67;;;;;;;;;;5004279;28;20648;-43
2021/04/28 00:17:30;;;;;;;9.00;8.10;;;;;;;;;;4997157;28;20215;-43
2021/04/28 00:19:56;;;;;;;8.00;7.20;;;;;;;;;;5008319;28;20693;-43
2021/04/28 00:22:21;;;;;;;9.45;8.10;;;;;;;;;;5004239;28;20181;-43
2021/04/28 00:24:46;;;;;;;7.70;6.95;;;;;;;;;;5006010;28;20207;-44
2021/04/28 00:27:11;;;;;;;7.80;7.10;;;;;;;;;;5005167;28;20213;-43
2021/04/28 00:29:36;;;;;;;8.98;7.25;;;;;;;;;;5008368;28;20182;-43
2021/04/28 00:32:01;;;;;;;9.80;7.57;;;;;;;;;;5008521;28;20653;-43
2021/04/28 00:34:27;;;;;;;7.93;7.13;;;;;;;;;;5000795;28;20229;-44
2021/04/28 00:36:52;;;;;;;7.93;7.10;;;;;;;;;;5008545;28;20180;-43
2021/04/28 00:39:17;;;;;;;7.83;7.13;;;;;;;;;;4992635;28;20177;-43
2021/04/28 00:41:43;;;;;;;9.38;7.70;;;;;;;;;;5008510;28;20173;-43
2021/04/28 00:44:08;;;;;;;9.27;7.30;;;;;;;;;;4994156;28;20416;-44
2021/04/28 00:46:33;;;;;;;7.80;7.00;;;;;;;;;;5001934;28;20232;-44
2021/04/28 00:48:58;;;;;;;7.80;7.00;;;;;;;;;;5006237;28;20235;-43
2021/04/28 00:51:23;;;;;;;7.40;6.53;;;;;;;;;;5004229;28;20179;-44
2021/04/28 00:53:48;;;;;;;7.90;7.10;;;;;;;;;;5004181;28;20198;-44
2021/04/28 00:56:14;;;;;;;8.13;7.33;;;;;;;;;;5003984;28;20263;-44
2021/04/28 00:58:39;;;;;;;7.80;7.10;;;;;;;;;;5008360;28;20170;-44
2021/04/28 01:01:04;;;;;;;7.73;7.03;;;;;;;;;;5007522;28;20179;-44
2021/04/28 01:03:30;;;;;;;7.63;6.93;;;;;;;;;;5005582;28;20180;-44
2021/04/28 01:05:56;;;;;;;7.23;6.53;;;;;;;;;;4997138;28;20207;-44
2021/04/28 01:08:22;;;;;;;7.03;6.43;;;;;;;;;;4990125;28;20190;-44
2021/04/28 01:10:48;;;;;;;7.97;7.17;;;;;;;;;;5004957;28;20659;-44
2021/04/28 01:13:13;;;;;;;7.90;6.87;;;;;;;;;;5006919;28;20404;-44
2021/04/28 01:15:39;;;;;;;7.20;6.50;;;;;;;;;;5000402;28;21043;-44
2021/04/28 01:18:04;;;;;;;7.97;7.17;;;;;;;;;;5001650;28;20169;-44
2021/04/28 01:20:32;;;;;;;8.50;7.47;;;;;;;;;;5007091;28;20181;-43
2021/04/28 01:22:57;;;;;;;7.03;6.27;;;;;;;;;;5011788;28;20184;-43
2021/04/28 01:25:23;;;;;;;7.10;6.53;;;;;;;;;;5010285;28;20605;-44
2021/04/28 01:27:57;;;;;;;7.63;7.00;;;;;;;;;;5005050;28;20169;-44
2021/04/28 01:30:23;;;;;;;7.40;6.70;;;;;;;;;;4996697;28;20589;-44
2021/04/28 01:32:50;;;;;;;7.57;6.50;;;;;;;;;;5010655;28;20681;-44
2021/04/28 01:35:17;;;;;;;8.37;6.47;;;;;;;;;;5002556;28;20593;-44
2021/04/28 01:37:43;;;;;;;8.17;7.03;;;;;;;;;;5000208;28;21158;-44
2021/04/28 01:40:10;;;;;;;8.97;7.00;;;;;;;;;;5005190;28;21220;-44
2021/04/28 01:42:35;;;;;;;7.07;6.47;;;;;;;;;;5009316;28;20601;-44
2021/04/28 01:45:01;;;;;;;7.70;7.00;;;;;;;;;;5010724;28;20654;-45
2021/04/28 01:47:26;;;;;;;7.80;6.83;;;;;;;;;;5007087;28;20261;-44
2021/04/28 01:49:52;;;;;;;7.80;7.00;;;;;;;;;;5009733;28;21507;-44
2021/04/28 01:52:18;;;;;;;8.37;7.57;;;;;;;;;;5008628;28;20253;-44
2021/04/28 01:54:45;;;;;;;7.37;6.47;;;;;;;;;;5009097;28;20208;-44
2021/04/28 01:57:10;;;;;;;6.33;5.83;;;;;;;;;;5006624;28;21151;-44
2021/04/28 01:59:37;;;;;;;7.53;6.67;;;;;;;;;;5005679;28;20628;-43
2021/04/28 02:02:03;;;;;;;7.73;6.33;;;;;;;;;;4999344;28;20592;-43
2021/04/28 02:04:29;;;;;;;7.13;6.53;;;;;;;;;;5001665;28;20651;-44
2021/04/28 02:06:54;;;;;;;7.20;6.50;;;;;;;;;;4999312;28;20185;-44
2021/04/28 02:09:20;;;;;;;7.77;6.97;;;;;;;;;;5009674;28;20631;-44
2021/04/28 02:11:45;;;;;;;8.17;7.27;;;;;;;;;;5008001;28;20255;-44
2021/04/28 02:14:14;;;;;;;7.18;6.47;;;;;;;;;;5010665;28;20292;-42
2021/04/28 02:16:40;;;;;;;6.73;6.03;;;;;;;;;;5003920;28;20170;-43
2021/04/28 02:19:07;;;;;;;9.63;7.10;;;;;;;;;;5007896;28;20651;-44
2021/04/28 02:21:33;;;;;;;7.40;6.77;;;;;;;;;;4993162;28;20648;-44
2021/04/28 02:23:58;;;;;;;7.67;6.97;;;;;;;;;;4998400;28;20631;-44
2021/04/28 02:26:23;;;;;;;7.57;6.87;;;;;;;;;;5004544;28;20208;-44
2021/04/28 02:28:49;;;;;;;7.97;7.10;;;;;;;;;;5008602;28;20182;-44
2021/04/28 02:31:14;;;;;;;7.18;6.53;;;;;;;;;;5010385;28;20189;-44
2021/04/28 02:33:39;;;;;;;7.70;6.90;;;;;;;;;;5009787;28;20205;-44
2021/04/28 02:36:04;;;;;;;6.77;6.27;;;;;;;;;;5011192;28;20170;-44
2021/04/28 02:38:41;;;;;;;8.23;7.20;;;;;;;;;;5009820;28;20184;-44
2021/04/28 02:41:06;;;;;;;7.27;6.60;;;;;;;;;;5001609;28;20177;-44
2021/04/28 02:43:34;;;;;;;8.93;7.97;;;;;;;;;;5009006;28;20608;-44
2021/04/28 02:46:00;;;;;;;7.70;7.00;;;;;;;;;;5011133;28;20178;-44
2021/04/28 02:48:26;;;;;;;7.00;6.40;;;;;;;;;;5009053;28;20611;-44
2021/04/28 02:50:51;;;;;;;9.33;6.97;;;;;;;;;;5009296;28;20182;-44
2021/04/28 02:53:17;;;;;;;9.87;7.40;;;;;;;;;;5009502;28;20194;-45
2021/04/28 02:55:42;;;;;;;7.40;6.80;;;;;;;;;;5004020;28;20170;-44
2021/04/28 02:58:08;;;;;;;7.53;6.83;;;;;;;;;;5009936;28;20181;-44
2021/04/28 03:00:33;;;;;;;7.70;6.90;;;;;;;;;;4996516;28;20190;-44
2021/04/28 03:02:58;;;;;;;7.77;7.00;;;;;;;;;;5009284;28;20177;-44
2021/04/28 03:05:24;;;;;;;7.57;6.13;;;;;;;;;;5006382;28;20166;-44
2021/04/28 03:07:49;;;;;;;7.60;6.80;;;;;;;;;;5004223;28;20181;-44
2021/04/28 03:10:14;;;;;;;7.60;6.80;;;;;;;;;;5009399;28;20738;-44
2021/04/28 03:12:40;;;;;;;7.33;6.63;;;;;;;;;;5008712;28;20468;-44
2021/04/28 03:15:06;;;;;;;7.97;7.00;;;;;;;;;;5006469;28;20206;-44
2021/04/28 03:17:32;;;;;;;10.97;7.07;;;;;;;;;;4997602;28;20189;-44
2021/04/28 03:19:58;;;;;;;7.63;6.87;;;;;;;;;;5007551;28;20590;-44
2021/04/28 03:22:23;;;;;;;8.30;7.07;;;;;;;;;;5004823;28;20186;-44
2021/04/28 03:24:49;;;;;;;7.77;7.00;;;;;;;;;;5009404;28;20608;-45
2021/04/28 03:27:16;;;;;;;9.33;6.70;;;;;;;;;;5007094;28;20379;-44
2021/04/28 03:29:41;;;;;;;7.57;6.87;;;;;;;;;;5009705;28;20268;-43
2021/04/28 03:32:07;;;;;;;7.53;6.67;;;;;;;;;;5001832;28;20604;-44
2021/04/28 03:34:32;;;;;;;7.00;6.40;;;;;;;;;;5009237;28;20231;-44
2021/04/28 03:36:58;;;;;;;7.67;6.97;;;;;;;;;;5007746;28;20178;-43
2021/04/28 03:39:23;;;;;;;7.73;6.93;;;;;;;;;;5008881;28;20535;-44
2021/04/28 03:41:48;;;;;;;10.35;7.10;;;;;;;;;;5007640;28;20195;-44
2021/04/28 03:44:13;;;;;;;6.00;5.60;;;;;;;;;;5007936;28;20169;-43
2021/04/28 03:46:38;;;;;;;8.13;7.30;;;;;;;;;;5003753;28;20184;-43
2021/04/28 03:49:04;;;;;;;8.00;6.90;;;;;;;;;;5005495;28;20236;-43
2021/04/28 03:51:29;;;;;;;7.90;7.10;;;;;;;;;;5001993;28;20277;-43
2021/04/28 03:53:54;;;;;;;9.30;7.60;;;;;;;;;;4995269;28;20198;-43
2021/04/28 03:56:19;;;;;;;8.67;6.93;;;;;;;;;;4989536;28;20632;-43
2021/04/28 03:58:44;;;;;;;8.32;7.05;;;;;;;;;;5003782;28;20174;-43
2021/04/28 04:01:10;;;;;;;7.85;7.15;;;;;;;;;;5001649;28;20285;-43
2021/04/28 04:03:35;;;;;;;7.87;7.10;;;;;;;;;;5000869;28;20182;-44
2021/04/28 04:06:00;;;;;;;7.93;7.13;;;;;;;;;;4996558;28;20272;-43
2021/04/28 04:08:25;;;;;;;10.52;8.00;;;;;;;;;;5003112;28;20918;-43
2021/04/28 04:10:50;;;;;;;8.70;7.73;;;;;;;;;;5003364;28;20289;-43
2021/04/28 04:13:15;;;;;;;7.97;7.37;;;;;;;;;;4996523;28;20250;-43
2021/04/28 04:15:41;;;;;;;8.83;7.27;;;;;;;;;;4996729;28;20178;-43
2021/04/28 04:18:06;;;;;;;8.88;7.72;;;;;;;;;;4995691;28;20175;-43
2021/04/28 04:20:31;;;;;;;8.88;7.65;;;;;;;;;;5004215;28;20236;-43
2021/04/28 04:22:56;;;;;;;8.63;7.33;;;;;;;;;;5006240;28;20178;-44
2021/04/28 04:25:21;;;;;;;10.10;7.77;;;;;;;;;;5007623;28;20213;-44
2021/04/28 04:27:46;;;;;;;8.63;7.50;;;;;;;;;;5006989;28;20469;-44
2021/04/28 04:30:12;;;;;;;9.03;7.80;;;;;;;;;;5003218;28;20186;-43
2021/04/28 04:32:37;;;;;;;9.33;7.83;;;;;;;;;;5005862;28;20209;-44
2021/04/28 04:35:06;;;;;;;8.50;7.70;;;;;;;;;;4997640;28;21015;-45
2021/04/28 04:37:31;;;;;;;9.43;8.43;;;;;;;;;;4997922;28;20430;-44
2021/04/28 04:40:00;;;;;;;10.83;8.60;;;;;;;;;;4994216;28;21053;-45
2021/04/28 04:42:25;;;;;;;9.33;8.40;;;;;;;;;;5003300;28;20597;-44
2021/04/28 04:44:50;;;;;;;9.77;8.50;;;;;;;;;;5003775;28;20604;-43
2021/04/28 04:47:16;;;;;;;13.60;9.87;;;;;;;;;;4999909;28;20185;-43
2021/04/28 04:49:42;;;;;;;9.33;8.43;;;;;;;;;;5005215;28;20185;-42
2021/04/28 04:52:08;;;;;;;11.60;8.60;;;;;;;;;;5004855;28;20317;-42
2021/04/28 04:54:33;;;;;;;9.43;8.43;;;;;;;;;;5003207;28;20677;-43
2021/04/28 04:56:58;;;;;;;11.07;8.32;;;;;;;;;;5003391;28;20190;-43
2021/04/28 04:59:23;;;;;;;9.23;8.40;;;;;;;;;;5004466;28;20327;-43
2021/04/28 05:01:49;;;;;;;10.10;8.23;;;;;;;;;;4999057;28;20193;-43
2021/04/28 05:04:14;;;;;;;10.03;8.47;;;;;;;;;;5002748;28;20640;-44
2021/04/28 05:06:39;;;;;;;10.80;7.70;;;;;;;;;;5002647;28;20198;-44
2021/04/28 05:09:04;;;;;;;8.83;8.07;;;;;;;;;;5006828;28;20185;-44
2021/04/28 05:11:29;;;;;;;9.48;8.57;;;;;;;;;;4999006;28;20590;-44
2021/04/28 05:13:54;;;;;;;9.98;8.07;;;;;;;;;;4993360;28;20209;-44
2021/04/28 05:16:19;;;;;;;8.90;8.00;;;;;;;;;;4989196;28;20313;-44
2021/04/28 05:18:45;;;;;;;9.77;8.77;;;;;;;;;;5000594;28;20187;-45
2021/04/28 05:21:10;;;;;;;13.10;7.97;;;;;;;;;;5001366;28;20550;-44
2021/04/28 05:23:35;;;;;;;9.90;8.40;;;;;;;;;;4990739;28;20265;-44
2021/04/28 05:26:00;;;;;;;8.63;7.82;;;;;;;;;;5001750;28;20594;-44
2021/04/28 05:28:26;;;;;;;12.30;9.20;;;;;;;;;;5005124;28;20632;-44
2021/04/28 05:30:51;;;;;;;12.10;8.73;;;;;;;;;;5007829;28;20651;-45
2021/04/28 05:33:16;;;;;;;10.98;9.10;;;;;;;;;;5007795;28;20625;-43
2021/04/28 05:35:41;;;;;;;10.50;8.63;;;;;;;;;;5007469;28;20184;-43
2021/04/28 05:38:06;;;;;;;11.20;9.18;;;;;;;;;;5007308;28;20672;-43
2021/04/28 05:40:31;;;;;;;10.10;9.10;;;;;;;;;;5007586;28;20221;-44
2021/04/28 05:42:57;;;;;;;9.57;8.70;;;;;;;;;;5007829;28;20189;-44
2021/04/28 05:45:22;;;;;;;9.77;8.45;;;;;;;;;;5007734;28;20565;-44
2021/04/28 05:47:47;;;;;;;20.17;9.10;;;;;;;;;;5007047;28;20650;-44
2021/04/28 05:50:14;;;;;;;15.37;8.73;;;;;;;;;;5007581;28;20180;-44
2021/04/28 05:52:40;;;;;;;10.77;8.50;;;;;;;;;;5007342;28;20204;-44
2021/04/28 05:55:06;;;;;;;10.20;9.27;;;;;;;;;;5007780;28;20663;-44
2021/04/28 05:57:32;;;;;;;11.23;8.20;;;;;;;;;;5007495;28;20217;-43
2021/04/28 05:59:57;;;;;;;9.00;8.20;;;;;;;;;;5007878;28;21016;-44
2021/04/28 06:02:23;;;;;;;10.07;9.07;;;;;;;;;;5007766;28;20575;-43
2021/04/28 06:04:48;;;;;;;9.10;7.78;;;;;;;;;;5008741;28;20174;-42
2021/04/28 06:07:13;;;;;;;10.53;8.00;;;;;;;;;;5010575;28;20191;-44
2021/04/28 06:09:38;;;;;;;10.00;8.73;;;;;;;;;;5011071;28;20195;-43
2021/04/28 06:12:04;;;;;;;9.70;8.20;;;;;;;;;;5011355;28;20769;-43
2021/04/28 06:14:29;;;;;;;9.63;8.73;;;;;;;;;;5007348;28;20243;-43
2021/04/28 06:16:54;;;;;;;13.30;9.55;;;;;;;;;;5007329;28;20170;-44
2021/04/28 06:19:19;;;;;;;9.87;8.90;;;;;;;;;;5011369;28;20182;-43
2021/04/28 06:21:44;;;;;;;10.02;9.07;;;;;;;;;;4997085;28;20175;-43
2021/04/28 06:24:10;;;;;;;9.67;8.77;;;;;;;;;;4992757;28;20186;-43
2021/04/28 06:26:36;;;;;;;10.70;8.27;;;;;;;;;;4990573;28;20178;-43
2021/04/28 06:29:01;;;;;;;9.80;8.83;;;;;;;;;;4997464;28;20560;-43
2021/04/28 06:31:26;;;;;;;10.23;9.23;;;;;;;;;;5007694;28;21213;-43
2021/04/28 06:33:51;;;;;;;10.40;9.40;;;;;;;;;;5006092;28;20251;-43
2021/04/28 06:36:17;;;;;;;11.63;9.87;;;;;;;;;;5006612;28;20180;-44
2021/04/28 06:38:42;;;;;;;10.07;8.90;;;;;;;;;;5007276;28;20189;-44
2021/04/28 06:41:07;;;;;;;10.52;9.43;;;;;;;;;;5007003;28;20178;-43
2021/04/28 06:43:32;;;;;;;10.73;9.63;;;;;;;;;;5005843;28;20189;-44
2021/04/28 06:45:58;;;;;;;10.63;9.15;;;;;;;;;;5002331;28;20735;-44
2021/04/28 06:48:23;;;;;;;12.50;9.60;;;;;;;;;;5005844;28;20166;-44
2021/04/28 06:50:48;;;;;;;10.47;9.33;;;;;;;;;;5006250;28;20215;-44
2021/04/28 06:53:13;;;;;;;11.13;9.73;;;;;;;;;;5000836;28;20573;-44
2021/04/28 06:55:39;;;;;;;10.35;9.27;;;;;;;;;;5005153;28;20174;-44
2021/04/28 06:58:04;;;;;;;11.20;10.10;;;;;;;;;;5006616;28;20709;-44
2021/04/28 07:00:29;;;;;;;10.80;9.80;;;;;;;;;;5007046;28;20180;-45
2021/04/28 07:02:55;;;;;;;13.13;10.87;;;;;;;;;;5006219;28;20296;-44
2021/04/28 07:05:20;;;;;;;14.50;11.37;;;;;;;;;;5003259;28;20186;-45
2021/04/28 07:07:46;;;;;;;12.73;11.30;;;;;;;;;;5006218;28;20178;-45
2021/04/28 07:10:11;;;;;;;11.90;10.70;;;;;;;;;;5006941;28;20730;-45
2021/04/28 07:12:37;;;;;;;11.50;10.50;;;;;;;;;;5001351;28;20792;-44
2021/04/28 07:15:03;;;;;;;13.23;10.03;;;;;;;;;;4999340;28;20201;-45
2021/04/28 07:17:28;;;;;;;12.30;11.10;;;;;;;;;;5006487;28;20507;-44
2021/04/28 07:19:53;;;;;;;12.43;11.13;;;;;;;;;;5006999;28;20169;-44
2021/04/28 07:22:18;;;;;;;12.17;10.87;;;;;;;;;;5007076;28;20174;-44
2021/04/28 07:24:43;;;;;;;12.20;10.90;;;;;;;;;;5005761;28;20188;-44
2021/04/28 07:27:08;;;;;;;13.27;10.75;;;;;;;;;;5006478;28;20189;-44
2021/04/28 07:29:34;;;;;;;13.53;12.23;;;;;;;;;;5006724;28;20586;-44
2021/04/28 07:32:02;;;;;;;15.43;12.45;;;;;;;;;;5006988;28;20533;-44
2021/04/28 07:34:27;;;;;;;18.60;14.43;;;;;;;;;;5006393;28;20438;-45
2021/04/28 07:36:52;;;;;;;15.13;13.50;;;;;;;;;;5006165;28;20962;-44
2021/04/28 07:39:17;;;;;;;13.00;11.90;;;;;;;;;;5002167;28;20201;-44
2021/04/28 07:41:44;;;;;;;14.43;12.90;;;;;;;;;;5004452;28;20178;-45
2021/04/28 07:44:09;;;;;;;14.67;13.17;;;;;;;;;;4998382;28;20196;-44
2021/04/28 07:46:35;;;;;;;15.68;14.07;;;;;;;;;;5007715;28;20568;-45
2021/04/28 07:49:04;;;;;;;15.00;13.60;;;;;;;;;;5007867;28;20181;-44
2021/04/28 07:51:32;;;;;;;14.93;13.60;;;;;;;;;;5006914;28;20612;-44
2021/04/28 07:53:58;;;;;;;20.07;15.43;;;;;;;;;;5000263;28;20645;-44
2021/04/28 07:56:23;;;;;;;15.80;14.37;;;;;;;;;;4998483;28;20666;-44
2021/04/28 07:58:48;;;;;;;17.10;15.33;;;;;;;;;;4988965;28;20184;-44
2021/04/28 08:01:13;;;;;;;15.98;14.38;;;;;;;;;;4997112;28;20178;-44
2021/04/28 08:03:38;;;;;;;17.00;14.90;;;;;;;;;;5004103;28;20227;-44
2021/04/28 08:06:04;;;;;;;15.82;14.23;;;;;;;;;;5000374;28;20534;-44
2021/04/28 08:08:29;;;;;;;15.90;14.30;;;;;;;;;;4998473;28;20236;-44
2021/04/28 08:10:54;;;;;;;17.95;15.15;;;;;;;;;;4998708;28;20255;-44
2021/04/28 08:13:19;;;;;;;14.60;13.20;;;;;;;;;;4996054;28;20253;-43
2021/04/28 08:15:46;;;;;;;15.80;14.13;;;;;;;;;;5006947;28;20537;-44
2021/04/28 08:18:11;;;;;;;15.70;14.30;;;;;;;;;;5004549;28;20335;-44
2021/04/28 08:20:38;;;;;;;16.30;14.80;;;;;;;;;;4993204;28;21303;-44
2021/04/28 08:23:03;;;;;;;16.50;15.00;;;;;;;;;;5004061;28;20316;-44
2021/04/28 08:25:28;;;;;;;15.80;14.33;;;;;;;;;;5000060;28;20584;-43
2021/04/28 08:27:53;;;;;;;16.50;14.80;;;;;;;;;;4988827;28;20191;-43
2021/04/28 08:30:19;;;;;;;16.85;15.25;;;;;;;;;;4992963;28;20186;-43
2021/04/28 08:32:44;;;;;;;17.17;15.50;;;;;;;;;;5000356;28;20284;-43
2021/04/28 08:35:13;;;;;;;17.35;15.63;;;;;;;;;;5005010;28;20232;-42
2021/04/28 08:37:39;;;;;;;17.27;15.63;;;;;;;;;;5000780;28;20666;-45
2021/04/28 08:40:04;;;;;;;16.00;14.40;;;;;;;;;;4999703;28;20585;-44
2021/04/28 08:42:31;;;;;;;16.33;14.73;;;;;;;;;;5006604;28;20347;-44
2021/04/28 08:44:58;;;;;;;18.17;16.27;;;;;;;;;;5007574;28;20186;-45
2021/04/28 08:47:24;;;;;;;17.17;15.33;;;;;;;;;;5008654;28;20610;-44
2021/04/28 08:49:49;;;;;;;17.73;16.00;;;;;;;;;;5008152;28;20578;-44
2021/04/28 08:52:15;;;;;;;17.33;15.70;;;;;;;;;;5008203;28;20541;-44
2021/04/28 08:54:41;;;;;;;16.60;15.10;;;;;;;;;;5007942;28;20712;-45
2021/04/28 08:57:06;;;;;;;16.60;15.07;;;;;;;;;;5008496;28;20585;-44
2021/04/28 08:59:31;;;;;;;16.30;14.70;;;;;;;;;;5008377;28;20204;-44
2021/04/28 09:02:13;;;;;;;16.83;15.23;;;;;;;;;;5008253;28;20234;-44
2021/04/28 09:04:38;;;;;;;16.60;14.90;;;;;;;;;;5007909;28;20189;-45
2021/04/28 09:07:03;;;;;;;15.77;14.27;;;;;;;;;;5007811;28;20586;-44
2021/04/28 09:09:28;;;;;;;16.67;15.10;;;;;;;;;;5008413;28;20916;-44
2021/04/28 09:11:54;;;;;;;16.23;14.70;;;;;;;;;;5008216;28;20231;-44
2021/04/28 09:14:20;;;;;;;16.93;15.33;;;;;;;;;;5007840;28;20708;-44
2021/04/28 09:16:54;;;;;;;17.13;15.53;;;;;;;;;;5008115;28;20572;-43
2021/04/28 09:19:58;;;;;;;16.53;15.03;;;;;;;;;;5008095;28;20585;-44
2021/04/28 09:22:23;;;;;;;17.67;15.87;;;;;;;;;;5007780;28;20960;-44
2021/04/28 09:24:53;;;;;;;16.07;14.50;;;;;;;;;;5007954;28;20598;-44
2021/04/28 09:27:25;;;;;;;17.83;16.10;;;;;;;;;;5008172;28;20187;-44
2021/04/28 09:29:52;;;;;;;20.07;17.97;;;;;;;;;;5007483;28;21205;-44
2021/04/28 09:32:18;;;;;;;17.80;16.20;;;;;;;;;;5007848;28;20618;-44
2021/04/28 09:34:43;;;;;;;17.75;15.98;;;;;;;;;;5007799;28;20690;-44
2021/04/28 09:37:11;;;;;;;17.20;15.70;;;;;;;;;;5007715;28;20191;-44
2021/04/28 09:39:40;;;;;;;17.07;15.47;;;;;;;;;;5010319;28;20172;-44
2021/04/28 09:42:06;;;;;;;17.93;16.33;;;;;;;;;;5011722;28;20546;-44
2021/04/28 09:44:32;;;;;;;20.27;16.80;;;;;;;;;;5011524;28;20614;-44
2021/04/28 09:47:00;;;;;;;16.40;15.07;;;;;;;;;;5011717;28;20544;-44
2021/04/28 09:49:27;;;;;;;16.30;14.80;;;;;;;;;;5011732;28;20571;-44
2021/04/28 09:51:53;;;;;;;17.60;16.10;;;;;;;;;;5011290;28;20599;-44
2021/04/28 09:54:19;;;;;;;16.13;14.63;;;;;;;;;;4992313;28;20643;-44
2021/04/28 09:56:45;;;;;;;17.53;15.40;;;;;;;;;;4991938;28;20569;-44
2021/04/28 09:59:10;;;;;;;17.60;15.87;;;;;;;;;;4991763;28;20600;-44
2021/04/28 10:01:36;;;;;;;15.57;13.97;;;;;;;;;;4993302;28;20584;-45
2021/04/28 10:04:02;;;;;;;14.70;13.40;;;;;;;;;;5010064;28;20263;-44
2021/04/28 10:06:40;;;;;;;15.17;13.63;;;;;;;;;;5011417;28;20574;-44
2021/04/28 10:09:24;;;;;;;16.63;15.13;;;;;;;;;;5010625;28;20612;-44
2021/04/28 10:11:49;;;;;;;18.80;16.63;;;;;;;;;;5011213;28;21199;-44
2021/04/28 10:14:15;;;;;;;15.70;14.40;;;;;;;;;;5010796;28;20716;-44
2021/04/28 10:16:40;;;;;;;19.42;17.75;;;;;;;;;;5011397;28;20228;-44
2021/04/28 10:19:05;;;;;;;16.13;14.73;;;;;;;;;;5011151;28;20630;-44
2021/04/28 10:21:30;;;;;;;18.17;16.40;;;;;;;;;;5011223;28;20181;-45
2021/04/28 10:23:56;;;;;;;15.83;14.50;;;;;;;;;;5010587;28;20184;-45
2021/04/28 10:26:21;;;;;;;16.07;14.70;;;;;;;;;;5011049;28;20180;-44
2021/04/28 10:28:47;;;;;;;19.50;17.60;;;;;;;;;;5010921;28;20596;-44
2021/04/28 10:31:12;;;;;;;17.93;16.40;;;;;;;;;;5010991;28;20448;-44
2021/04/28 10:33:38;;;;;;;16.27;14.77;;;;;;;;;;5010587;28;20201;-45
2021/04/28 10:36:06;;;;;;;16.10;14.70;;;;;;;;;;5010619;28;20634;-45
2021/04/28 10:38:31;;;;;;;16.60;14.93;;;;;;;;;;5010380;28;20250;-44
2021/04/28 10:40:56;;;;;;;16.60;14.93;;;;;;;;;;5010642;28;20587;-44
2021/04/28 10:43:32;;;;;;;17.63;15.85;;;;;;;;;;5010441;28;20180;-45
2021/04/28 10:46:15;;;;;;;15.70;14.20;;;;;;;;;;5010607;28;20627;-45
2021/04/28 10:48:40;;;;;;;15.07;13.77;;;;;;;;;;5010466;28;20592;-45
2021/04/28 10:51:06;;;;;;;15.30;13.90;;;;;;;;;;5009681;28;20579;-45
2021/04/28 10:53:31;;;;;;;16.10;14.70;;;;;;;;;;5010301;28;20583;-45
2021/04/28 10:55:57;;;;;;;18.43;15.83;;;;;;;;;;5010703;28;20177;-44
2021/04/28 10:58:37;;;;;;;15.27;13.97;;;;;;;;;;5010483;28;20253;-45
2021/04/28 11:01:04;;;;;;;18.77;16.07;;;;;;;;;;5010451;28;20300;-45
2021/04/28 11:03:29;;;;;;;17.73;14.40;;;;;;;;;;5010080;28;20691;-45
2021/04/28 11:05:55;;;;;;;19.23;17.57;;;;;;;;;;5009939;28;20746;-44
2021/04/28 11:08:28;;;;;;;16.80;15.27;;;;;;;;;;5010026;28;20555;-45
2021/04/28 11:10:53;;;;;;;15.77;14.47;;;;;;;;;;5009671;28;21150;-46
2021/04/28 11:13:19;;;;;;;15.95;14.48;;;;;;;;;;5009712;28;21433;-44
2021/04/28 11:15:48;;;;;;;15.10;13.80;;;;;;;;;;5010133;28;20651;-43
2021/04/28 11:18:25;;;;;;;16.73;15.40;;;;;;;;;;5009875;28;20174;-45
2021/04/28 11:21:08;;;;;;;14.63;13.40;;;;;;;;;;5009956;28;20585;-45
2021/04/28 11:23:33;;;;;;;15.97;14.67;;;;;;;;;;5009379;28;20607;-44
2021/04/28 11:26:23;;;;;;;16.92;15.45;;;;;;;;;;5009797;28;20581;-44
2021/04/28 11:28:48;;;;;;;15.43;13.93;;;;;;;;;;5009927;28;20182;-44
2021/04/28 11:31:38;;;;;;;15.80;14.40;;;;;;;;;;5009756;28;20595;-45
2021/04/28 11:34:31;;;;;;;13.63;12.00;;;;;;;;;;5009200;28;20209;-45
2021/04/28 11:36:59;;;;;;;14.97;13.67;;;;;;;;;;5009543;28;21184;-44
2021/04/28 11:39:43;;;;;;;14.07;12.77;;;;;;;;;;5009556;28;21156;-45
2021/04/28 11:42:18;;;;;;;13.43;12.23;;;;;;;;;;5009297;28;20638;-45
2021/04/28 11:44:49;;;;;;;13.10;12.00;;;;;;;;;;4990147;28;20928;-45
2021/04/28 11:47:16;;;;;;;14.63;13.33;;;;;;;;;;4990178;28;20595;-45
2021/04/28 11:49:45;;;;;;;13.40;12.10;;;;;;;;;;4989867;28;20968;-44
2021/04/28 11:52:11;;;;;;;13.87;12.63;;;;;;;;;;4992550;28;20605;-45
2021/04/28 11:54:36;;;;;;;16.10;14.40;;;;;;;;;;5009449;28;20699;-44
2021/04/28 11:57:02;;;;;;;14.07;12.90;;;;;;;;;;5009434;28;20549;-44
2021/04/28 11:59:29;;;;;;;13.83;12.63;;;;;;;;;;5008887;28;20569;-45
2021/04/28 12:02:12;;;;;;;12.90;11.60;;;;;;;;;;5008400;28;20246;-45
2021/04/28 12:04:42;;;;;;;12.20;11.00;;;;;;;;;;5009251;28;20576;-45
2021/04/28 12:07:09;;;;;;;13.97;12.67;;;;;;;;;;5008799;28;20597;-45
2021/04/28 12:09:41;;;;;;;12.33;11.23;;;;;;;;;;5008939;28;20585;-45
2021/04/28 12:12:11;;;;;;;12.40;11.30;;;;;;;;;;5008792;28;21295;-43
2021/04/28 12:14:37;;;;;;;8.90;8.10;;;;;;;;;;5009087;28;20645;-43
2021/04/28 12:17:02;;;;;;;8.33;7.50;;;;;;;;;;5009005;28;20575;-42
2021/04/28 12:19:27;;;;;;;7.70;7.03;;;;;;;;;;5008738;28;20640;-44
2021/04/28 12:22:01;;;;;;;10.90;10.00;;;;;;;;;;5008631;28;20175;-44
2021/04/28 12:24:36;;;;;;;8.70;8.00;;;;;;;;;;5008874;28;20179;-44
2021/04/28 12:27:01;;;;;;;13.30;11.00;;;;;;;;;;5008819;28;20606;-44
2021/04/28 12:29:26;;;;;;;11.95;10.80;;;;;;;;;;5008194;28;20765;-45
2021/04/28 12:31:52;;;;;;;12.38;10.98;;;;;;;;;;5009143;28;20266;-45
2021/04/28 12:34:17;;;;;;;13.07;11.73;;;;;;;;;;5008590;28;20673;-45
2021/04/28 12:36:43;;;;;;;11.70;10.50;;;;;;;;;;4993401;28;20295;-44
2021/04/28 12:39:08;;;;;;;12.67;11.47;;;;;;;;;;4991538;28;20185;-45
2021/04/28 12:41:33;;;;;;;10.93;9.95;;;;;;;;;;4999360;28;20181;-45
2021/04/28 12:43:59;;;;;;;11.90;10.80;;;;;;;;;;5000014;28;20714;-45
2021/04/28 12:46:29;;;;;;;13.90;12.70;;;;;;;;;;4996926;28;20637;-45
2021/04/28 12:49:02;;;;;;;15.60;13.47;;;;;;;;;;5006330;28;20176;-45
2021/04/28 12:51:28;;;;;;;12.80;11.70;;;;;;;;;;4997439;28;20603;-45
2021/04/28 12:53:53;;;;;;;13.40;12.20;;;;;;;;;;5004286;28;21011;-45
2021/04/28 12:56:19;;;;;;;13.00;11.90;;;;;;;;;;4998500;28;20612;-44
2021/04/28 12:58:45;;;;;;;12.37;11.37;;;;;;;;;;5001656;28;20185;-44
2021/04/28 13:01:17;;;;;;;12.93;11.73;;;;;;;;;;4995258;28;20179;-44
2021/04/28 13:03:42;;;;;;;11.13;10.13;;;;;;;;;;5004742;28;20177;-44
2021/04/28 13:06:09;;;;;;;11.77;10.77;;;;;;;;;;4986746;28;20705;-45
2021/04/28 13:08:35;;;;;;;13.07;11.20;;;;;;;;;;4989707;28;20184;-44
2021/04/28 13:11:14;;;;;;;12.43;11.33;;;;;;;;;;4985498;28;20667;-45
2021/04/28 13:13:39;;;;;;;11.90;10.97;;;;;;;;;;4997412;28;21116;-45
2021/04/28 13:16:06;;;;;;;9.55;8.75;;;;;;;;;;4989869;28;21136;-45
2021/04/28 13:18:47;;;;;;;11.33;10.33;;;;;;;;;;4996181;28;20265;-45
2021/04/28 13:21:38;;;;;;;12.23;11.13;;;;;;;;;;5000856;28;20603;-46
2021/04/28 13:24:12;;;;;;;11.67;10.77;;;;;;;;;;5014552;28;20670;-46
2021/04/28 13:26:57;;;;;;;11.20;10.30;;;;;;;;;;4985647;28;20583;-45
2021/04/28 13:29:22;;;;;;;13.60;12.40;;;;;;;;;;4987848;28;20620;-45
2021/04/28 13:31:47;;;;;;;13.20;12.00;;;;;;;;;;4997686;28;20608;-45
2021/04/28 13:34:29;;;;;;;11.68;10.57;;;;;;;;;;4996651;28;20192;-45
2021/04/28 13:36:54;;;;;;;11.10;10.00;;;;;;;;;;5002144;28;20181;-45
2021/04/28 13:39:27;;;;;;;10.13;9.13;;;;;;;;;;5004696;28;21353;-45
2021/04/28 13:41:57;;;;;;;11.23;10.13;;;;;;;;;;5004692;28;20202;-45
2021/04/28 13:44:23;;;;;;;10.00;9.20;;;;;;;;;;4999484;28;20718;-45
2021/04/28 13:46:48;;;;;;;9.87;9.07;;;;;;;;;;4999845;28;20693;-45
2021/04/28 13:49:14;;;;;;;10.45;9.45;;;;;;;;;;5001050;28;20707;-45
2021/04/28 13:51:39;;;;;;;10.38;9.48;;;;;;;;;;5002347;28;20185;-46
2021/04/28 13:54:04;;;;;;;12.10;10.37;;;;;;;;;;5000230;28;20200;-45
2021/04/28 13:56:30;;;;;;;12.53;11.33;;;;;;;;;;4997178;28;20684;-45
2021/04/28 13:58:55;;;;;;;12.20;11.10;;;;;;;;;;4992313;28;20169;-45
2021/04/28 14:01:20;;;;;;;11.73;10.50;;;;;;;;;;4984357;28;20177;-45
2021/04/28 14:03:46;;;;;;;12.70;11.40;;;;;;;;;;4988485;28;20179;-45
2021/04/28 14:06:12;;;;;;;11.73;10.70;;;;;;;;;;4993272;28;20192;-45
2021/04/28 14:08:37;;;;;;;11.27;10.27;;;;;;;;;;5002270;28;20196;-45
2021/04/28 14:11:03;;;;;;;9.83;9.00;;;;;;;;;;4994266;28;20204;-45
2021/04/28 14:13:28;;;;;;;10.20;9.40;;;;;;;;;;4992329;28;20643;-45
2021/04/28 14:15:53;;;;;;;10.67;9.73;;;;;;;;;;4979900;28;20181;-45
2021/04/28 14:18:18;;;;;;;11.00;10.03;;;;;;;;;;4997359;28;20173;-45
2021/04/28 14:20:43;;;;;;;12.33;11.23;;;;;;;;;;4994296;28;20198;-45
2021/04/28 14:23:09;;;;;;;11.73;9.98;;;;;;;;;;4995607;28;20533;-45
2021/04/28 14:25:34;;;;;;;11.00;10.00;;;;;;;;;;4994708;28;20180;-45